Medlin's Ranch, Nevada Weather observations

Data are for observation ending at time listed.
 Day   Time    Ave.   Ave.  Ave.  Vector   Max.   Stn.    Total    Solar   Ave.  
  of    of     Air    Rel.  Wind   Wind    Wind   Baro.  Precip.   Rad.    Soil  
Year   Day     Temp.  Hum.  Speed  Dir.    Gust   Pres.                    Temp. 
2017   (PST)    F      %     mph   deg.    mph     mb.     in.     W/m2     F   
------------------------------------------------------------------------------
  35   21:00   40.2    80    2.9   280      5.1    864     0.00       0    46.2
  35   22:00   38.6    82    3.1   270      4.8    865     0.00       0    45.3
  35   23:00   39.0    82    2.0   305      5.0    865     0.00       0    44.6
  36    0:00   38.7    82    2.4   305      4.8    865     0.00       0    44.0
  36    1:00   37.5    86    2.3   288      3.6    865     0.00       0    43.5
  36    2:00   35.8    88    2.8   260      4.7    865     0.00       0    43.1
  36    3:00   35.1    88    4.4   288      6.6    864     0.00       0    42.6
  36    4:00   35.8    87    3.1   285      5.8    864     0.00       0    42.0
  36    5:00   33.3    89    3.4   267      5.0    864     0.00       0    41.5
  36    6:00   31.0    90    1.1   310      3.7    864     0.00       0    41.0
  36    7:00   32.1    91    3.3   263      5.6    864     0.00       9    40.5
  36    8:00   33.8    90    2.2   308      3.9    864     0.00      50    40.0
  36    9:00   38.8    86    1.8   292      3.5    864     0.00     136    39.9
  36   10:00   45.5    69    1.7    74      4.5    865     0.00     317    40.4
  36   11:00   48.4    62    1.9    73      5.5    865     0.00     489    41.6
  36   12:00   51.2    56    4.0   130      8.0    864     0.00     589    43.4
  36   13:00   52.3    53    4.3   125      9.3    862     0.00     383    45.6
  36   14:00   51.9    53    4.9   128      9.6    861     0.00     247    47.1
  36   15:00   52.4    51    6.7   151     13.7    860     0.00     262    47.7
  36   16:00   51.6    50    7.0   145     13.3    860     0.00     131    48.0
  36   17:00   50.1    53    4.8   136      9.6    860     0.00      29    48.0
  36   18:00   48.2    59    3.6   153      8.0    860     0.00       0    47.7
  36   19:00   45.8    66    3.1   183      5.6    860     0.00       0    47.1
  36   20:00   44.0    70    3.3   194      5.5    860     0.00       0    46.5

Return to Medlin's Ranch, Nevada graphs page.


Western Regional Climate Center,wrcc@dri.edu